createdAt,value
2019-02-17T00:01:12.497Z,96439.42
2019-02-17T00:03:41.686Z,96444.59
2019-02-17T00:06:10.916Z,96437.95
2019-02-17T00:08:40.835Z,96434.62
2019-02-17T00:11:10.102Z,96443.75
2019-02-17T00:13:39.281Z,96436.61
2019-02-17T00:16:27.596Z,96437.51
2019-02-17T00:18:56.791Z,96435.63
2019-02-17T00:21:25.963Z,96436.71
2019-02-17T00:23:55.190Z,96436.44
2019-02-17T00:26:24.375Z,96435.87
2019-02-17T00:28:59.598Z,96432.03
2019-02-17T00:31:24.505Z,96433.28
2019-02-17T00:33:53.742Z,96432.80
2019-02-17T00:36:22.923Z,96432.36
2019-02-17T00:38:52.158Z,96430.92
2019-02-17T00:41:21.345Z,96432.45
2019-02-17T00:43:50.579Z,96436.13
2019-02-17T00:46:19.766Z,96433.72
2019-02-17T00:51:43.823Z,96434.04
2019-02-17T00:54:14.585Z,96437.84
2019-02-17T00:56:43.820Z,96442.94
2019-02-17T00:59:13.007Z,96436.80
2019-02-17T01:01:42.251Z,96433.99
2019-02-17T01:04:11.457Z,96432.38
2019-02-17T01:06:40.700Z,96433.66
2019-02-17T01:09:09.889Z,96433.13
2019-02-17T01:11:39.138Z,96435.92
2019-02-17T01:14:08.316Z,96434.09
2019-02-17T01:16:37.559Z,96437.16
2019-02-17T01:19:07.121Z,96431.60
2019-02-17T01:21:36.370Z,96436.32
2019-02-17T01:24:05.580Z,96431.84
2019-02-17T01:26:34.826Z,96430.62
2019-02-17T01:29:04.023Z,96429.70
2019-02-17T01:31:33.278Z,96427.11
2019-02-17T01:34:47.342Z,96428.63
2019-02-17T01:37:16.957Z,96423.84
2019-02-17T01:39:53.180Z,96420.08
2019-02-17T01:42:41.410Z,96425.84
2019-02-17T01:45:10.601Z,96430.64
2019-02-17T01:47:40.172Z,96420.00
2019-02-17T01:52:57.782Z,96421.53
2019-02-17T01:55:26.963Z,96418.56
2019-02-17T01:57:56.202Z,96410.06
2019-02-17T02:00:25.385Z,96404.05
2019-02-17T02:02:54.637Z,96411.97
2019-02-17T02:05:23.837Z,96410.37
2019-02-17T02:07:53.031Z,96402.94
2019-02-17T02:10:22.613Z,96402.76
2019-02-17T02:12:51.801Z,96395.41
2019-02-17T02:15:21.045Z,96398.05
2019-02-17T02:17:50.233Z,96390.39
2019-02-17T02:20:19.482Z,96395.64
2019-02-17T02:22:49.008Z,96395.55
2019-02-17T02:25:18.255Z,96391.06
2019-02-17T02:27:47.435Z,96383.71
2019-02-17T02:30:16.686Z,96382.78
2019-02-17T02:32:46.204Z,96385.59
2019-02-17T02:35:15.450Z,96385.81
2019-02-17T02:37:44.637Z,96388.78
2019-02-17T02:40:13.902Z,96389.31
2019-02-17T02:42:43.081Z,96388.30
2019-02-17T02:45:12.385Z,96387.63
2019-02-17T02:47:41.626Z,96388.30
2019-02-17T02:50:30.363Z,96385.27
2019-02-17T02:52:59.960Z,96383.66
2019-02-17T02:55:29.145Z,96380.83
2019-02-17T02:57:58.385Z,96379.87
2019-02-17T03:00:27.582Z,96383.23
2019-02-17T03:02:57.175Z,96381.90
2019-02-17T03:05:26.357Z,96377.28
2019-02-17T03:07:55.600Z,96381.08
2019-02-17T03:10:24.795Z,96381.30
2019-02-17T03:12:54.457Z,96382.77
2019-02-17T03:15:23.646Z,96380.11
2019-02-17T03:17:52.981Z,96383.75
2019-02-17T03:20:22.159Z,96391.84
2019-02-17T03:22:51.340Z,96382.81
2019-02-17T03:25:20.584Z,96385.17
2019-02-17T03:27:49.785Z,96388.06
2019-02-17T03:30:19.361Z,96382.23
2019-02-17T03:32:48.554Z,96380.76
2019-02-17T03:35:17.791Z,96387.39
2019-02-17T03:37:46.987Z,96387.83
2019-02-17T03:40:16.225Z,96381.47
2019-02-17T03:42:45.409Z,96382.13
2019-02-17T03:45:14.640Z,96378.91
2019-02-17T03:47:43.957Z,96376.88
2019-02-17T03:50:13.203Z,96383.95
2019-02-17T03:52:42.438Z,96384.05
2019-02-17T03:55:11.623Z,96384.86
2019-02-17T03:57:40.872Z,96382.89
2019-02-17T04:00:22.444Z,96379.64
2019-02-17T04:02:51.200Z,96375.56
2019-02-17T04:05:20.380Z,96376.31
2019-02-17T04:07:49.619Z,96381.75
2019-02-17T04:10:18.796Z,96379.80
2019-02-17T04:12:48.039Z,96375.92
2019-02-17T04:15:17.214Z,96379.56
2019-02-17T04:17:46.454Z,96384.27
2019-02-17T04:20:15.623Z,96380.63
2019-02-17T04:22:44.816Z,96375.37
2019-02-17T04:25:14.048Z,96373.94
2019-02-17T04:27:43.221Z,96378.88
2019-02-17T04:30:12.462Z,96379.38
2019-02-17T04:32:41.637Z,96379.38
2019-02-17T04:35:10.890Z,96380.95
2019-02-17T04:37:40.090Z,96388.98
2019-02-17T04:40:09.331Z,96383.05
2019-02-17T04:42:38.527Z,96382.88
2019-02-17T04:45:07.808Z,96380.33
2019-02-17T04:47:36.986Z,96373.44
2019-02-17T04:50:06.682Z,96380.94
2019-02-17T04:52:35.913Z,96382.28
2019-02-17T04:55:05.486Z,96380.30
2019-02-17T04:57:34.671Z,96381.73
2019-02-17T05:00:04.069Z,96388.39
2019-02-17T05:02:33.238Z,96390.45
2019-02-17T05:05:02.403Z,96386.78
2019-02-17T05:07:31.626Z,96390.41
2019-02-17T05:10:00.813Z,96385.05
2019-02-17T05:12:30.044Z,96385.70
2019-02-17T05:14:59.227Z,96385.50
2019-02-17T05:17:28.456Z,96384.50
2019-02-17T05:19:57.622Z,96380.77
2019-02-17T05:22:26.905Z,96378.66
2019-02-17T05:24:56.073Z,96380.84
2019-02-17T05:27:25.343Z,96374.48
2019-02-17T05:29:54.566Z,96378.63
2019-02-17T05:32:24.063Z,96381.86
2019-02-17T05:34:53.290Z,96380.64
2019-02-17T05:37:22.466Z,96380.77
2019-02-17T05:39:51.712Z,96384.67
2019-02-17T05:42:20.901Z,96386.80
2019-02-17T05:44:50.136Z,96390.14
2019-02-17T05:47:19.315Z,96384.91
2019-02-17T05:49:48.540Z,96390.83
2019-02-17T05:52:17.771Z,96393.08
2019-02-17T05:54:47.021Z,96389.70
2019-02-17T05:57:16.308Z,96393.32
2019-02-17T05:59:45.478Z,96398.18
2019-02-17T06:02:15.049Z,96396.81
2019-02-17T06:04:44.546Z,96393.67
2019-02-17T06:07:13.786Z,96389.89
2019-02-17T06:09:42.967Z,96389.23
2019-02-17T06:12:12.190Z,96393.38
2019-02-17T06:14:41.364Z,96398.36
2019-02-17T06:17:10.952Z,96395.15
2019-02-17T06:19:40.135Z,96402.47
2019-02-17T06:22:09.551Z,96409.16
2019-02-17T06:24:38.739Z,96410.53
2019-02-17T06:27:07.968Z,96408.03
2019-02-17T06:29:37.137Z,96409.81
2019-02-17T06:32:06.380Z,96410.58
2019-02-17T06:34:35.563Z,96415.62
2019-02-17T06:37:04.794Z,96415.66
2019-02-17T06:39:34.342Z,96422.17
2019-02-17T06:42:03.961Z,96421.53
2019-02-17T06:44:33.521Z,96421.68
2019-02-17T06:49:53.868Z,96430.15
2019-02-17T06:52:23.098Z,96432.73
2019-02-17T06:55:11.267Z,96435.56
2019-02-17T06:57:41.547Z,96430.34
2019-02-17T07:00:30.144Z,96434.46
2019-02-17T07:02:59.736Z,96430.64
2019-02-17T07:05:47.924Z,96431.60
2019-02-17T07:08:17.499Z,96430.36
2019-02-17T07:10:47.044Z,96430.40
2019-02-17T07:13:16.222Z,96431.52
2019-02-17T07:15:45.747Z,96424.77
2019-02-17T07:18:14.986Z,96422.14
2019-02-17T07:20:44.237Z,96429.00
2019-02-17T07:23:15.219Z,96426.87
2019-02-17T07:25:44.396Z,96426.44
2019-02-17T07:28:13.566Z,96417.63
2019-02-17T07:30:42.809Z,96420.77
2019-02-17T07:33:11.996Z,96424.84
2019-02-17T07:35:41.231Z,96423.55
2019-02-17T07:38:10.405Z,96427.30
2019-02-17T07:40:39.585Z,96438.08
2019-02-17T07:43:08.829Z,96437.65
2019-02-17T07:45:38.681Z,96433.29
2019-02-17T07:48:07.912Z,96431.91
2019-02-17T07:50:37.423Z,96432.45
2019-02-17T07:53:06.656Z,96433.61
2019-02-17T07:55:35.847Z,96430.32
2019-02-17T07:58:05.103Z,96441.05
2019-02-17T08:00:34.294Z,96431.98
2019-02-17T08:03:03.526Z,96430.33
2019-02-17T08:05:32.705Z,96429.94
2019-02-17T08:08:01.888Z,96431.36
2019-02-17T08:10:31.119Z,96432.58
2019-02-17T08:13:00.293Z,96424.06
2019-02-17T08:15:29.535Z,96422.68
2019-02-17T08:17:58.714Z,96422.80
2019-02-17T08:20:27.947Z,96417.13
2019-02-17T08:22:57.120Z,96421.66
2019-02-17T08:25:26.349Z,96422.41
2019-02-17T08:27:55.524Z,96411.69
2019-02-17T08:30:24.775Z,96413.31
2019-02-17T08:32:53.971Z,96412.18
2019-02-17T08:35:23.196Z,96405.44
2019-02-17T08:37:52.388Z,96409.47
2019-02-17T08:40:21.566Z,96408.28
2019-02-17T08:42:50.809Z,96408.16
2019-02-17T08:45:19.984Z,96402.61
2019-02-17T08:47:49.218Z,96402.41
2019-02-17T08:50:20.047Z,96403.61
2019-02-17T08:52:49.425Z,96402.94
2019-02-17T08:55:18.964Z,96390.30
2019-02-17T08:57:48.199Z,96395.64
2019-02-17T09:00:17.380Z,96405.28
2019-02-17T09:02:46.611Z,96396.92
2019-02-17T09:05:15.812Z,96399.17
2019-02-17T09:07:45.393Z,96402.27
2019-02-17T09:10:53.948Z,96400.20
2019-02-17T09:13:23.314Z,96397.91
2019-02-17T09:15:52.490Z,96400.96
2019-02-17T09:18:22.136Z,96400.80
2019-02-17T09:20:51.330Z,96392.70
2019-02-17T09:23:20.904Z,96394.68
2019-02-17T09:25:50.495Z,96392.20
2019-02-17T09:28:19.856Z,96397.71
2019-02-17T09:30:49.216Z,96395.46
2019-02-17T09:33:18.385Z,96395.95
2019-02-17T09:35:47.619Z,96389.95
2019-02-17T09:38:17.254Z,96395.14
2019-02-17T09:40:48.119Z,96386.24
2019-02-17T09:43:18.764Z,96389.59
2019-02-17T09:45:48.023Z,96388.44
2019-02-17T09:48:17.553Z,96390.24
2019-02-17T09:50:47.242Z,96385.35
2019-02-17T09:53:16.422Z,96385.56
2019-02-17T09:55:46.008Z,96381.10
2019-02-17T09:58:15.190Z,96386.57
2019-02-17T10:00:44.472Z,96386.14
2019-02-17T10:03:14.005Z,96380.33
2019-02-17T10:05:43.192Z,96384.61
2019-02-17T10:08:12.424Z,96385.45
2019-02-17T10:10:41.602Z,96386.06
2019-02-17T10:13:11.116Z,96380.72
2019-02-17T10:15:40.300Z,96379.31
2019-02-17T10:18:09.545Z,96380.53
2019-02-17T10:20:38.749Z,96375.91
2019-02-17T10:23:08.009Z,96378.42
2019-02-17T10:25:37.219Z,96375.33
2019-02-17T10:28:06.800Z,96375.33
2019-02-17T10:30:35.991Z,96373.77
2019-02-17T10:33:05.230Z,96381.25
2019-02-17T10:35:34.423Z,96372.12
2019-02-17T10:38:03.708Z,96368.17
2019-02-17T10:40:32.915Z,96372.92
2019-02-17T10:43:03.644Z,96369.21
2019-02-17T10:45:33.106Z,96368.02
2019-02-17T10:48:02.291Z,96363.96
2019-02-17T10:50:31.596Z,96359.20
2019-02-17T10:53:00.794Z,96359.09
2019-02-17T10:55:30.045Z,96355.28
2019-02-17T10:58:00.041Z,96348.80
2019-02-17T11:00:30.532Z,96345.95
2019-02-17T11:03:06.231Z,96338.19
2019-02-17T11:05:35.526Z,96338.33
2019-02-17T11:08:04.710Z,96328.34
2019-02-17T11:10:33.924Z,96324.98
2019-02-17T11:13:03.177Z,96327.13
2019-02-17T11:15:32.370Z,96320.93
2019-02-17T11:18:01.956Z,96317.34
2019-02-17T11:20:31.475Z,96314.95
2019-02-17T11:23:00.717Z,96308.87
2019-02-17T11:25:29.923Z,96306.34
2019-02-17T11:27:59.524Z,96304.67
2019-02-17T11:30:28.721Z,96297.28
2019-02-17T11:32:58.420Z,96296.54
2019-02-17T11:35:29.880Z,96288.50
2019-02-17T11:37:59.998Z,96290.61
2019-02-17T11:40:29.195Z,96284.49
2019-02-17T11:42:58.467Z,96283.20
2019-02-17T11:48:36.749Z,96279.64
2019-02-17T11:51:05.994Z,96266.56
2019-02-17T11:53:35.632Z,96265.73
2019-02-17T11:56:05.138Z,96265.63
2019-02-17T11:58:34.333Z,96262.59
2019-02-17T12:01:05.255Z,96264.34
2019-02-17T12:03:34.896Z,96260.14
2019-02-17T12:06:04.153Z,96254.83
2019-02-17T12:08:33.831Z,96247.44
2019-02-17T12:11:03.108Z,96251.52
2019-02-17T12:13:32.400Z,96249.52
2019-02-17T12:16:01.745Z,96249.38
2019-02-17T12:18:30.952Z,96243.42
2019-02-17T12:21:19.472Z,96250.05
2019-02-17T12:24:07.639Z,96240.05
2019-02-17T12:26:46.085Z,96231.81
2019-02-17T12:29:21.666Z,96231.15
2019-02-17T12:31:50.928Z,96222.72
2019-02-17T12:34:20.120Z,96223.89
2019-02-17T12:36:49.336Z,96215.37
2019-02-17T12:39:18.582Z,96214.67
2019-02-17T12:41:47.767Z,96214.04
2019-02-17T12:44:17.077Z,96208.50
2019-02-17T12:46:46.280Z,96205.66
2019-02-17T12:49:15.516Z,96199.98
2019-02-17T12:51:44.741Z,96198.95
2019-02-17T12:54:13.982Z,96199.66
2019-02-17T12:56:43.184Z,96197.13
2019-02-17T12:59:12.440Z,96198.98
2019-02-17T13:01:41.625Z,96195.14
2019-02-17T13:04:10.811Z,96186.35
2019-02-17T13:06:40.129Z,96187.66
2019-02-17T13:09:09.636Z,96191.05
2019-02-17T13:11:39.154Z,96179.47
2019-02-17T13:14:08.348Z,96180.67
2019-02-17T13:16:37.611Z,96169.91
2019-02-17T13:19:06.798Z,96175.19
2019-02-17T13:21:36.445Z,96174.73
2019-02-17T13:24:05.634Z,96166.56
2019-02-17T13:26:34.879Z,96162.27
2019-02-17T13:29:04.076Z,96159.09
2019-02-17T13:31:33.343Z,96168.25
2019-02-17T13:34:02.543Z,96159.68
2019-02-17T13:36:31.750Z,96160.48
2019-02-17T13:39:01.000Z,96156.80
2019-02-17T13:41:30.199Z,96155.25
2019-02-17T13:43:59.877Z,96156.59
2019-02-17T13:46:29.067Z,96150.78
2019-02-17T13:48:58.313Z,96150.66
2019-02-17T13:54:15.807Z,96150.16
2019-02-17T13:56:45.003Z,96146.44
2019-02-17T13:59:14.241Z,96140.56
2019-02-17T14:01:43.434Z,96140.72
2019-02-17T14:04:12.677Z,96137.14
2019-02-17T14:06:41.878Z,96136.36
2019-02-17T14:09:11.464Z,96134.15
2019-02-17T14:11:41.073Z,96133.70
2019-02-17T14:14:10.281Z,96142.96
2019-02-17T14:16:39.523Z,96140.86
2019-02-17T14:19:08.821Z,96136.38
2019-02-17T14:24:12.953Z,96133.91
2019-02-17T14:26:42.218Z,96128.42
2019-02-17T14:29:30.549Z,96132.30
2019-02-17T14:32:00.210Z,96127.08
2019-02-17T14:34:29.421Z,96122.88
2019-02-17T14:39:52.029Z,96118.88
2019-02-17T14:42:21.219Z,96118.11
2019-02-17T14:45:09.733Z,96117.06
2019-02-17T14:47:38.933Z,96112.54
2019-02-17T14:50:48.039Z,96111.95
2019-02-17T14:53:17.699Z,96109.98
2019-02-17T14:55:46.886Z,96105.87
2019-02-17T14:58:16.439Z,96103.84
2019-02-17T15:00:45.671Z,96101.16
2019-02-17T15:03:14.895Z,96099.64
2019-02-17T15:05:44.180Z,96092.25
2019-02-17T15:08:13.369Z,96086.23
2019-02-17T15:10:42.611Z,96094.27
2019-02-17T15:13:11.804Z,96093.19
2019-02-17T15:15:41.038Z,96092.23
2019-02-17T15:18:10.220Z,96083.71
2019-02-17T15:20:39.811Z,96082.96
2019-02-17T15:23:08.995Z,96080.98
2019-02-17T15:25:38.291Z,96083.02
2019-02-17T15:28:07.492Z,96081.81
2019-02-17T15:30:36.778Z,96080.67
2019-02-17T15:33:05.958Z,96078.67
2019-02-17T15:35:35.196Z,96083.84
2019-02-17T15:38:04.456Z,96076.87
2019-02-17T15:40:33.675Z,96077.09
2019-02-17T15:43:02.937Z,96077.43
2019-02-17T15:45:32.120Z,96076.86
2019-02-17T15:48:01.354Z,96073.67
2019-02-17T15:50:30.602Z,96080.27
2019-02-17T15:52:59.856Z,96082.70
2019-02-17T15:55:29.068Z,96083.28
2019-02-17T15:57:58.235Z,96088.58
2019-02-17T16:00:27.871Z,96088.18
2019-02-17T16:02:57.090Z,96085.78
2019-02-17T16:08:01.821Z,96096.27
2019-02-17T16:10:31.094Z,96096.95
2019-02-17T16:13:00.290Z,96095.67
2019-02-17T16:15:29.522Z,96094.54
2019-02-17T16:17:59.118Z,96092.16
2019-02-17T16:20:28.398Z,96087.39
2019-02-17T16:22:57.554Z,96094.03
2019-02-17T16:25:26.845Z,96094.53
2019-02-17T16:27:56.040Z,96088.88
2019-02-17T16:30:25.251Z,96084.97
2019-02-17T16:32:54.519Z,96089.34
2019-02-17T16:35:23.717Z,96085.88
2019-02-17T16:37:53.035Z,96088.11
2019-02-17T16:40:22.227Z,96095.77
2019-02-17T16:42:51.834Z,96099.01
2019-02-17T16:45:21.030Z,96096.50
2019-02-17T16:47:50.268Z,96093.23
2019-02-17T16:50:20.233Z,96103.36
2019-02-17T16:52:49.471Z,96097.10
2019-02-17T16:55:18.773Z,96104.33
2019-02-17T16:57:48.035Z,96101.39
2019-02-17T17:00:56.784Z,96099.14
2019-02-17T17:03:26.031Z,96102.82
2019-02-17T17:05:55.220Z,96101.78
2019-02-17T17:08:24.487Z,96104.53
2019-02-17T17:10:54.048Z,96106.69
2019-02-17T17:13:23.371Z,96106.44
2019-02-17T17:15:52.835Z,96109.42
2019-02-17T17:18:22.007Z,96112.97
2019-02-17T17:20:51.236Z,96110.01
2019-02-17T17:23:20.490Z,96108.25
2019-02-17T17:25:49.744Z,96108.00
2019-02-17T17:28:19.016Z,96113.11
2019-02-17T17:30:48.265Z,96113.22
2019-02-17T17:33:17.443Z,96123.75
2019-02-17T17:35:46.676Z,96121.39
2019-02-17T17:38:15.855Z,96123.88
2019-02-17T17:40:45.095Z,96124.25
2019-02-17T17:43:14.295Z,96126.38
2019-02-17T17:45:43.549Z,96126.50
2019-02-17T17:48:12.729Z,96124.00
2019-02-17T17:50:41.978Z,96126.61
2019-02-17T17:53:11.299Z,96124.94
2019-02-17T17:55:40.936Z,96126.25
2019-02-17T17:58:10.167Z,96130.61
2019-02-17T18:00:39.361Z,96128.39
2019-02-17T18:03:08.586Z,96131.22
2019-02-17T18:05:37.779Z,96133.54
2019-02-17T18:08:07.039Z,96138.63
2019-02-17T18:10:36.246Z,96137.64
2019-02-17T18:13:05.491Z,96133.91
2019-02-17T18:15:34.682Z,96134.56
2019-02-17T18:18:03.976Z,96140.77
2019-02-17T18:23:21.375Z,96136.02
2019-02-17T18:25:50.582Z,96138.38
2019-02-17T18:28:19.837Z,96133.45
2019-02-17T18:30:49.011Z,96138.79
2019-02-17T18:33:18.189Z,96141.59
2019-02-17T18:35:47.424Z,96137.58
2019-02-17T18:38:16.613Z,96138.31
2019-02-17T18:40:47.843Z,96136.48
2019-02-17T18:43:16.773Z,96139.84
2019-02-17T18:45:46.027Z,96131.98
2019-02-17T18:48:15.212Z,96140.77
2019-02-17T18:50:44.527Z,96128.81
2019-02-17T18:53:15.454Z,96135.81
2019-02-17T18:55:45.814Z,96134.20
2019-02-17T18:58:15.004Z,96136.45
2019-02-17T19:00:44.315Z,96134.84
2019-02-17T19:03:13.509Z,96132.69
2019-02-17T19:08:17.396Z,96126.71
2019-02-17T19:10:46.681Z,96136.67
2019-02-17T19:13:15.918Z,96137.28
2019-02-17T19:15:45.187Z,96131.73
2019-02-17T19:18:14.366Z,96136.24
2019-02-17T19:23:18.183Z,96133.87
2019-02-17T19:25:47.429Z,96131.56
2019-02-17T19:28:16.673Z,96138.94
2019-02-17T19:30:46.016Z,96137.09
2019-02-17T19:33:15.331Z,96132.30
2019-02-17T19:35:45.323Z,96132.73
2019-02-17T19:38:14.571Z,96126.77
2019-02-17T19:40:43.831Z,96126.37
2019-02-17T19:43:13.094Z,96133.47
2019-02-17T19:45:42.595Z,96124.16
2019-02-17T19:48:11.856Z,96128.50
2019-02-17T19:50:41.315Z,96129.55
2019-02-17T19:53:10.607Z,96130.84
2019-02-17T19:55:39.803Z,96132.02
2019-02-17T19:58:08.997Z,96125.77
2019-02-17T20:00:38.513Z,96128.99
2019-02-17T20:03:26.725Z,96127.43
2019-02-17T20:05:58.696Z,96126.86
2019-02-17T20:08:27.880Z,96123.60
2019-02-17T20:10:57.120Z,96120.53
2019-02-17T20:13:26.300Z,96125.08
2019-02-17T20:15:55.579Z,96122.80
2019-02-17T20:18:24.800Z,96127.16
2019-02-17T20:20:54.037Z,96130.03
2019-02-17T20:23:23.247Z,96128.58
2019-02-17T20:25:52.799Z,96127.20
2019-02-17T20:28:32.459Z,96129.16
2019-02-17T20:30:52.964Z,96131.58
2019-02-17T20:33:22.146Z,96127.25
2019-02-17T20:36:01.755Z,96125.25
2019-02-17T20:38:22.508Z,96128.17
2019-02-17T20:40:51.772Z,96126.31
2019-02-17T20:43:21.031Z,96121.91
2019-02-17T20:45:50.309Z,96129.39
2019-02-17T20:48:19.879Z,96126.64
2019-02-17T20:50:49.123Z,96122.12
2019-02-17T20:53:18.354Z,96122.35
2019-02-17T20:55:47.877Z,96120.06
2019-02-17T20:58:17.116Z,96122.49
2019-02-17T21:00:46.688Z,96120.85
2019-02-17T21:03:15.929Z,96123.61
2019-02-17T21:05:45.109Z,96124.45
2019-02-17T21:08:14.340Z,96119.33
2019-02-17T21:10:43.884Z,96120.50
2019-02-17T21:13:13.121Z,96124.50
2019-02-17T21:15:42.298Z,96127.47
2019-02-17T21:18:11.526Z,96122.20
2019-02-17T21:20:40.708Z,96121.33
2019-02-17T21:23:09.973Z,96124.94
2019-02-17T21:25:39.172Z,96126.47
2019-02-17T21:28:08.344Z,96126.84
2019-02-17T21:30:37.576Z,96125.89
2019-02-17T21:33:06.764Z,96128.04
2019-02-17T21:35:35.996Z,96123.13
2019-02-17T21:38:05.178Z,96124.36
2019-02-17T21:40:34.413Z,96122.42
2019-02-17T21:43:03.967Z,96122.81
2019-02-17T21:45:33.212Z,96122.58
2019-02-17T21:48:02.392Z,96126.75
2019-02-17T21:50:31.614Z,96117.16
2019-02-17T21:53:00.843Z,96117.51
2019-02-17T21:55:30.066Z,96126.22
2019-02-17T21:57:59.243Z,96111.91
2019-02-17T22:00:28.488Z,96115.30
2019-02-17T22:02:57.661Z,96116.69
2019-02-17T22:08:01.745Z,96115.00
2019-02-17T22:10:31.079Z,96108.84
2019-02-17T22:13:00.291Z,96107.84
2019-02-17T22:15:29.493Z,96103.77
2019-02-17T22:17:59.031Z,96111.61
2019-02-17T22:20:28.246Z,96105.78
2019-02-17T22:22:57.517Z,96109.27
2019-02-17T22:25:26.724Z,96104.55
2019-02-17T22:27:56.067Z,96106.84
2019-02-17T22:30:25.266Z,96110.06
2019-02-17T22:32:54.522Z,96104.31
2019-02-17T22:35:24.073Z,96106.16
2019-02-17T22:37:53.367Z,96104.91
2019-02-17T22:40:22.578Z,96099.52
2019-02-17T22:42:51.836Z,96100.66
2019-02-17T22:45:21.088Z,96096.23
2019-02-17T22:47:50.385Z,96095.13
2019-02-17T22:53:21.698Z,96101.09
2019-02-17T22:55:51.245Z,96096.02
2019-02-17T22:58:20.842Z,96094.79
2019-02-17T23:01:10.553Z,96089.88
2019-02-17T23:03:39.748Z,96098.64
2019-02-17T23:06:09.017Z,96095.51
2019-02-17T23:08:38.213Z,96095.13
2019-02-17T23:11:07.833Z,96094.38
2019-02-17T23:13:37.085Z,96095.89
2019-02-17T23:16:06.356Z,96099.77
2019-02-17T23:18:35.574Z,96098.22
2019-02-17T23:21:05.134Z,96104.69
2019-02-17T23:23:34.332Z,96095.58
2019-02-17T23:26:03.572Z,96096.31
2019-02-17T23:28:32.762Z,96091.77
2019-02-17T23:31:02.024Z,96094.64
2019-02-17T23:33:31.223Z,96092.73
2019-02-17T23:36:00.479Z,96091.44
2019-02-17T23:38:29.665Z,96093.63
2019-02-17T23:40:58.934Z,96096.11
2019-02-17T23:43:28.136Z,96090.08
2019-02-17T23:45:57.418Z,96092.73
2019-02-17T23:48:26.625Z,96085.14
2019-02-17T23:50:55.905Z,96091.27
2019-02-17T23:53:25.229Z,96084.75
2019-02-17T23:55:54.418Z,96083.95
2019-02-17T23:58:23.687Z,96085.88
